Time;durP1;ratioP1;P1;durP2;ratioP2;P2;SDS_P1;SDS_P2;PMS_P1;PMS_P2;Temp;Humidity;BMP_temperature;BMP_pressure;BME280_temperature;BME280_humidity;BME280_pressure;Samples;Min_cycle;Max_cycle;Signal;HPM_P1;HPM_P2
2024/01/31 00:01:18;;;;;;;38.38;24.35;;;;;;;-145.63;100.00;61273.97;5033949;28;20038;-65
2024/01/31 00:03:44;;;;;;;38.45;23.05;;;;;;;-145.63;100.00;61273.97;5034577;28;20432;-66
2024/01/31 00:06:11;;;;;;;39.80;23.83;;;;;;;-145.63;100.00;61273.97;5034451;28;20036;-65
2024/01/31 00:08:36;;;;;;;35.75;24.23;;;;;;;-145.63;100.00;61273.97;5019789;28;20038;-65
2024/01/31 00:11:03;;;;;;;36.75;24.30;;;;;;;-145.63;100.00;61273.97;5038236;28;20685;-63
2024/01/31 00:13:29;;;;;;;36.28;24.63;;;;;;;-145.63;100.00;61273.97;5049735;28;20037;-64
2024/01/31 00:15:54;;;;;;;38.40;23.95;;;;;;;-145.63;100.00;61273.97;5029692;28;20048;-64
2024/01/31 00:18:20;;;;;;;38.60;24.10;;;;;;;-145.63;100.00;61273.97;5034116;28;20112;-65
2024/01/31 00:20:46;;;;;;;40.78;25.05;;;;;;;-145.63;100.00;61273.97;5033512;28;20076;-65
2024/01/31 00:23:11;;;;;;;41.70;24.88;;;;;;;-145.63;100.00;61273.97;5034696;28;20048;-65
2024/01/31 00:25:37;;;;;;;41.42;25.52;;;;;;;-145.63;100.00;61273.97;5034450;28;20034;-64
2024/01/31 00:28:03;;;;;;;44.70;25.95;;;;;;;-145.63;100.00;61273.97;5033873;28;20095;-64
2024/01/31 00:30:28;;;;;;;41.38;26.02;;;;;;;-145.63;100.00;61273.97;5034381;28;20533;-65
2024/01/31 00:32:54;;;;;;;40.35;25.27;;;;;;;-145.63;100.00;61273.97;5033811;28;20152;-63
2024/01/31 00:35:19;;;;;;;43.17;27.42;;;;;;;-145.63;100.00;61273.97;5034302;28;20075;-65
2024/01/31 00:37:45;;;;;;;42.28;26.17;;;;;;;-145.63;100.00;61273.97;5020432;28;20060;-65
2024/01/31 00:40:11;;;;;;;45.03;27.02;;;;;;;-145.63;100.00;61273.97;5034278;28;20034;-65
2024/01/31 00:42:41;;;;;;;41.60;27.00;;;;;;;-145.63;100.00;61273.97;5034024;28;20025;-64
2024/01/31 00:45:08;;;;;;;42.15;26.48;;;;;;;-145.63;100.00;61273.97;5034069;28;20038;-64
2024/01/31 00:47:33;;;;;;;39.67;26.98;;;;;;;-145.63;100.00;61273.97;5032895;28;20029;-64
2024/01/31 00:49:59;;;;;;;46.78;27.50;;;;;;;-145.63;100.00;61273.97;5033739;28;20041;-63
2024/01/31 00:52:25;;;;;;;44.80;27.27;;;;;;;-145.63;100.00;61273.97;5033803;28;20051;-64
2024/01/31 00:54:50;;;;;;;45.20;27.88;;;;;;;-145.63;100.00;61273.97;5034057;28;20025;-64
2024/01/31 00:57:17;;;;;;;43.30;27.52;;;;;;;-145.63;100.00;61273.97;5027785;28;20037;-65
2024/01/31 00:59:43;;;;;;;45.88;27.25;;;;;;;-145.63;100.00;61273.97;5034094;28;20255;-63
2024/01/31 01:02:10;;;;;;;44.65;28.13;;;;;;;-145.63;100.00;61273.97;5033916;28;20025;-64
2024/01/31 01:04:35;;;;;;;43.03;27.58;;;;;;;-145.63;100.00;61273.97;5033817;28;20036;-64
2024/01/31 01:07:01;;;;;;;41.75;26.40;;;;;;;-145.63;100.00;61273.97;5017695;28;20054;-64
2024/01/31 01:09:27;;;;;;;46.08;28.70;;;;;;;-145.63;100.00;61273.97;5033661;28;20034;-64
2024/01/31 01:11:53;;;;;;;42.13;28.15;;;;;;;-145.63;100.00;61273.97;5052681;28;20045;-64
2024/01/31 01:14:18;;;;;;;44.97;26.23;;;;;;;-145.63;100.00;61273.97;5043110;28;20112;-64
2024/01/31 01:16:44;;;;;;;49.30;28.85;;;;;;;-145.63;100.00;61273.97;5027333;28;20090;-64
2024/01/31 01:19:10;;;;;;;52.05;32.40;;;;;;;-145.63;100.00;61273.97;5033351;28;20521;-65
2024/01/31 01:21:36;;;;;;;45.58;29.83;;;;;;;-145.63;100.00;61273.97;5033015;28;20041;-64
2024/01/31 01:24:02;;;;;;;47.05;30.50;;;;;;;-145.63;100.00;61273.97;5033401;28;20463;-64
2024/01/31 01:26:28;;;;;;;46.17;30.50;;;;;;;-145.63;100.00;61273.97;5033067;28;20383;-65
2024/01/31 01:28:54;;;;;;;45.38;29.88;;;;;;;-145.63;100.00;61273.97;5032740;28;20057;-63
2024/01/31 01:31:20;;;;;;;47.97;31.42;;;;;;;-145.63;100.00;61273.97;5033868;28;20037;-65
2024/01/31 01:33:46;;;;;;;49.22;30.90;;;;;;;-145.63;100.00;61273.97;5031788;28;20026;-64
2024/01/31 01:36:12;;;;;;;49.95;30.55;;;;;;;-145.63;100.00;61273.97;5025400;28;20428;-65
2024/01/31 01:38:38;;;;;;;46.53;29.52;;;;;;;-145.63;100.00;61273.97;5013425;28;20099;-65
2024/01/31 01:41:04;;;;;;;45.95;28.05;;;;;;;-145.63;100.00;61273.97;5021671;28;20052;-66
2024/01/31 01:43:30;;;;;;;47.30;29.90;;;;;;;-145.63;100.00;61273.97;5032675;28;20447;-66
2024/01/31 01:46:10;;;;;;;50.85;29.83;;;;;;;-145.63;100.00;61273.97;5033231;28;20541;-65
2024/01/31 01:48:37;;;;;;;43.33;27.48;;;;;;;-145.63;100.00;61273.97;5013401;28;20109;-65
2024/01/31 01:51:02;;;;;;;49.88;28.75;;;;;;;-145.63;100.00;61273.97;5013216;28;20030;-65
2024/01/31 01:53:32;;;;;;;48.92;29.52;;;;;;;-145.63;100.00;61273.97;5024260;28;20368;-65
2024/01/31 01:55:57;;;;;;;52.15;28.58;;;;;;;-145.63;100.00;61273.97;5033071;28;20029;-65
2024/01/31 01:58:23;;;;;;;44.92;28.58;;;;;;;-145.63;100.00;61273.97;5032244;28;20026;-65
2024/01/31 02:00:50;;;;;;;50.58;29.50;;;;;;;-145.63;100.00;61273.97;5033060;28;20031;-67
2024/01/31 02:03:17;;;;;;;46.20;28.75;;;;;;;-145.63;100.00;61273.97;5032648;28;20116;-66
2024/01/31 02:05:45;;;;;;;51.92;29.73;;;;;;;-145.63;100.00;61273.97;5026713;28;20025;-65
2024/01/31 02:08:13;;;;;;;48.25;28.58;;;;;;;-145.63;100.00;61273.97;5022117;28;20032;-65
2024/01/31 02:10:39;;;;;;;51.15;30.20;;;;;;;-145.63;100.00;61273.97;5040278;28;20036;-65
2024/01/31 02:13:04;;;;;;;59.38;31.98;;;;;;;-145.63;100.00;61273.97;5052257;28;20032;-66
2024/01/31 02:15:30;;;;;;;64.50;33.90;;;;;;;-145.63;100.00;61273.97;5014363;28;20202;-65
2024/01/31 02:18:16;;;;;;;57.72;32.20;;;;;;;-145.63;100.00;61273.97;5031693;28;20053;-65
2024/01/31 02:20:41;;;;;;;54.70;31.80;;;;;;;-145.63;100.00;61273.97;5032048;28;20387;-65
2024/01/31 02:23:07;;;;;;;64.43;33.20;;;;;;;-145.63;100.00;61273.97;5032597;28;20052;-65
2024/01/31 02:25:33;;;;;;;62.75;33.33;;;;;;;-145.63;100.00;61273.97;5032426;28;20112;-65
2024/01/31 02:27:59;;;;;;;64.28;35.45;;;;;;;-145.63;100.00;61273.97;5033064;28;20116;-65
2024/01/31 02:30:24;;;;;;;59.88;35.88;;;;;;;-145.63;100.00;61273.97;5031781;28;20037;-64
2024/01/31 02:32:50;;;;;;;62.35;34.97;;;;;;;-145.63;100.00;61273.97;5031844;28;20095;-65
2024/01/31 02:35:15;;;;;;;61.40;33.75;;;;;;;-145.63;100.00;61273.97;5032138;28;20033;-65
2024/01/31 02:37:42;;;;;;;70.63;37.55;;;;;;;-145.63;100.00;61273.97;5017149;28;20049;-65
2024/01/31 02:40:08;;;;;;;70.88;35.42;;;;;;;-145.63;100.00;61273.97;5032254;28;20108;-67
2024/01/31 02:42:34;;;;;;;67.95;34.85;;;;;;;-145.63;100.00;61273.97;5032120;28;20443;-66
2024/01/31 02:44:59;;;;;;;72.72;36.15;;;;;;;-145.63;100.00;61273.97;5032417;28;20455;-65
2024/01/31 02:47:25;;;;;;;68.45;35.83;;;;;;;-145.63;100.00;61273.97;5031653;28;20112;-65
2024/01/31 02:49:51;;;;;;;67.15;35.88;;;;;;;-145.63;100.00;61273.97;5030940;28;20041;-65
2024/01/31 02:52:16;;;;;;;75.00;36.45;;;;;;;-145.63;100.00;61273.97;5032212;28;20080;-66
2024/01/31 02:54:42;;;;;;;77.50;37.45;;;;;;;-145.63;100.00;61273.97;5032028;28;20029;-66
2024/01/31 02:57:08;;;;;;;83.25;39.63;;;;;;;-145.63;100.00;61273.97;5031283;28;20143;-67
2024/01/31 02:59:33;;;;;;;73.10;35.90;;;;;;;-145.63;100.00;61273.97;5029704;28;20033;-65
2024/01/31 03:01:59;;;;;;;79.43;38.72;;;;;;;-145.63;100.00;61273.97;5032148;28;20068;-66
2024/01/31 03:04:24;;;;;;;91.53;39.22;;;;;;;-145.63;100.00;61273.97;5031311;28;20034;-64
2024/01/31 03:06:50;;;;;;;81.50;40.47;;;;;;;-145.63;100.00;61273.97;5031941;28;20132;-65
2024/01/31 03:09:16;;;;;;;91.18;42.08;;;;;;;-145.63;100.00;61273.97;5014700;28;20138;-66
2024/01/31 03:11:41;;;;;;;93.40;41.97;;;;;;;-145.63;100.00;61273.97;5045875;28;20041;-65
2024/01/31 03:14:07;;;;;;;91.78;42.80;;;;;;;-145.63;100.00;61273.97;5044061;28;20034;-65
2024/01/31 03:16:33;;;;;;;86.57;42.42;;;;;;;-145.63;100.00;61273.97;5024605;28;20481;-65
2024/01/31 03:18:58;;;;;;;103.13;45.30;;;;;;;-145.63;100.00;61273.97;5031831;28;20474;-66
2024/01/31 03:21:24;;;;;;;97.40;44.67;;;;;;;-145.63;100.00;61273.97;5031567;28;20080;-66
2024/01/31 03:23:51;;;;;;;98.65;44.97;;;;;;;-145.63;100.00;61273.97;5031479;28;20025;-66
2024/01/31 03:26:16;;;;;;;101.13;43.38;;;;;;;-145.63;100.00;61273.97;5031449;28;20453;-65
2024/01/31 03:28:42;;;;;;;98.20;43.75;;;;;;;-145.63;100.00;61273.97;5031680;28;20030;-66
2024/01/31 03:31:08;;;;;;;95.82;40.97;;;;;;;-145.63;100.00;61273.97;5032007;28;20037;-65
2024/01/31 03:33:34;;;;;;;98.28;42.50;;;;;;;-145.63;100.00;61273.97;5031407;28;20037;-66
2024/01/31 03:36:00;;;;;;;98.82;42.75;;;;;;;-145.63;100.00;61273.97;5031273;28;20038;-65
2024/01/31 03:38:26;;;;;;;95.40;39.92;;;;;;;-145.63;100.00;61273.97;5020964;28;20039;-66
2024/01/31 03:40:52;;;;;;;97.05;40.40;;;;;;;-145.63;100.00;61273.97;5017441;28;20471;-65
2024/01/31 03:43:18;;;;;;;94.07;41.25;;;;;;;-145.63;100.00;61273.97;5030786;28;20083;-66
2024/01/31 03:45:43;;;;;;;94.18;40.35;;;;;;;-145.63;100.00;61273.97;5033594;28;20453;-66
2024/01/31 03:48:09;;;;;;;96.78;40.33;;;;;;;-145.63;100.00;61273.97;5035095;28;20025;-66
2024/01/31 03:50:35;;;;;;;89.45;38.35;;;;;;;-145.63;100.00;61273.97;5025515;28;20033;-66
2024/01/31 03:53:00;;;;;;;80.13;35.30;;;;;;;-145.63;100.00;61273.97;5035028;28;20068;-67
2024/01/31 03:55:26;;;;;;;84.03;39.10;;;;;;;-145.63;100.00;61273.97;5034532;28;20022;-65
2024/01/31 03:57:51;;;;;;;82.85;37.45;;;;;;;-145.63;100.00;61273.97;5034178;28;20045;-66
2024/01/31 04:00:17;;;;;;;76.63;36.35;;;;;;;-145.63;100.00;61273.97;5034568;28;20434;-65
2024/01/31 04:02:43;;;;;;;65.13;33.40;;;;;;;-145.63;100.00;61273.97;5034747;28;20034;-63
2024/01/31 04:05:12;;;;;;;61.58;32.30;;;;;;;-145.63;100.00;61273.97;5031831;28;20029;-63
2024/01/31 04:07:38;;;;;;;56.47;31.73;;;;;;;-145.63;100.00;61273.97;5018416;28;20052;-63
2024/01/31 04:10:04;;;;;;;58.63;31.08;;;;;;;-145.63;100.00;61273.97;5034623;28;20033;-63
2024/01/31 04:12:30;;;;;;;57.47;29.95;;;;;;;-145.63;100.00;61273.97;5034603;28;20037;-64
2024/01/31 04:14:55;;;;;;;56.92;30.70;;;;;;;-145.63;100.00;61273.97;5034209;28;20474;-64
2024/01/31 04:17:21;;;;;;;52.83;30.80;;;;;;;-145.63;100.00;61273.97;5034727;28;20033;-64
2024/01/31 04:19:48;;;;;;;59.42;30.65;;;;;;;-145.63;100.00;61273.97;5034549;28;20071;-64
2024/01/31 04:22:16;;;;;;;55.67;30.10;;;;;;;-145.63;100.00;61273.97;5034243;28;20512;-66
2024/01/31 04:24:43;;;;;;;55.85;28.88;;;;;;;-145.63;100.00;61273.97;5016606;28;20017;-64
2024/01/31 04:27:10;;;;;;;54.85;29.58;;;;;;;-145.63;100.00;61273.97;5034195;28;20032;-64
2024/01/31 04:29:39;;;;;;;60.28;31.48;;;;;;;-145.63;100.00;61273.97;5033654;28;20032;-64
2024/01/31 04:32:06;;;;;;;58.97;30.63;;;;;;;-145.63;100.00;61273.97;5033804;28;20026;-65
2024/01/31 04:34:31;;;;;;;53.92;29.35;;;;;;;-145.63;100.00;61273.97;5034555;28;20041;-65
2024/01/31 04:36:57;;;;;;;56.50;30.50;;;;;;;-145.63;100.00;61273.97;5020885;28;20060;-63
2024/01/31 04:39:23;;;;;;;56.83;31.30;;;;;;;-145.63;100.00;61273.97;5031803;28;20375;-64
2024/01/31 04:41:48;;;;;;;58.67;30.42;;;;;;;-145.63;100.00;61273.97;5032510;28;20363;-64
2024/01/31 04:44:14;;;;;;;57.92;30.52;;;;;;;-145.63;100.00;61273.97;5032747;28;20459;-62
2024/01/31 04:46:40;;;;;;;54.47;30.38;;;;;;;-145.63;100.00;61273.97;5033422;28;20098;-63
2024/01/31 04:49:05;;;;;;;56.95;30.05;;;;;;;-145.63;100.00;61273.97;5033839;28;20025;-62
2024/01/31 04:51:32;;;;;;;50.53;28.75;;;;;;;-145.63;100.00;61273.97;5027158;28;20075;-63
2024/01/31 04:53:57;;;;;;;57.97;28.33;;;;;;;-145.63;100.00;61273.97;5033892;28;20037;-63
2024/01/31 04:56:24;;;;;;;59.63;29.05;;;;;;;-145.63;100.00;61273.97;5032130;28;20510;-62
2024/01/31 04:58:50;;;;;;;54.88;28.08;;;;;;;-145.63;100.00;61273.97;5033257;28;20037;-63
2024/01/31 05:01:16;;;;;;;56.75;28.83;;;;;;;-145.63;100.00;61273.97;5033592;28;20029;-63
2024/01/31 05:03:42;;;;;;;55.58;28.45;;;;;;;-145.63;100.00;61273.97;5032652;28;20028;-63
2024/01/31 05:06:08;;;;;;;63.78;27.92;;;;;;;-145.63;100.00;61273.97;5026911;28;20025;-62
2024/01/31 05:08:33;;;;;;;62.17;30.15;;;;;;;-145.63;100.00;61273.97;5025951;28;20108;-63
2024/01/31 05:10:59;;;;;;;52.22;26.73;;;;;;;-145.63;100.00;61273.97;5026104;28;20073;-61
2024/01/31 05:13:25;;;;;;;49.70;26.70;;;;;;;-145.63;100.00;61273.97;5032646;28;20037;-62
2024/01/31 05:15:51;;;;;;;52.95;27.00;;;;;;;-145.63;100.00;61273.97;5029363;28;20022;-63
2024/01/31 05:18:17;;;;;;;57.90;28.27;;;;;;;-145.63;100.00;61273.97;5023088;28;20244;-62
2024/01/31 05:20:43;;;;;;;58.20;28.70;;;;;;;-145.63;100.00;61273.97;5029368;28;20382;-63
2024/01/31 05:23:09;;;;;;;52.45;27.10;;;;;;;-145.63;100.00;61273.97;5033741;28;20040;-61
2024/01/31 05:25:34;;;;;;;56.85;28.08;;;;;;;-145.63;100.00;61273.97;5033164;28;20340;-61
2024/01/31 05:28:00;;;;;;;61.47;30.25;;;;;;;-145.63;100.00;61273.97;5033437;28;20116;-62
2024/01/31 05:30:25;;;;;;;59.80;29.10;;;;;;;-145.63;100.00;61273.97;5032781;28;20037;-62
2024/01/31 05:32:51;;;;;;;60.60;29.40;;;;;;;-145.63;100.00;61273.97;5032924;28;20108;-63
2024/01/31 05:35:17;;;;;;;57.28;28.10;;;;;;;-145.63;100.00;61273.97;5032770;28;20565;-63
2024/01/31 05:37:42;;;;;;;59.70;29.73;;;;;;;-145.63;100.00;61273.97;5016299;28;20052;-64
2024/01/31 05:40:09;;;;;;;60.22;30.02;;;;;;;-145.63;100.00;61273.97;5031412;28;20056;-63
2024/01/31 05:42:35;;;;;;;60.75;28.35;;;;;;;-145.63;100.00;61273.97;5032600;28;20168;-62
2024/01/31 05:45:00;;;;;;;65.78;29.45;;;;;;;-145.63;100.00;61273.97;5032826;28;20104;-63
2024/01/31 05:47:26;;;;;;;63.33;30.70;;;;;;;-145.63;100.00;61273.97;5032217;28;20176;-62
2024/01/31 05:49:52;;;;;;;68.25;30.08;;;;;;;-145.63;100.00;61273.97;5032669;28;20044;-64
2024/01/31 05:52:17;;;;;;;62.20;29.80;;;;;;;-145.63;100.00;61273.97;5032728;28;20036;-64
2024/01/31 05:54:43;;;;;;;69.30;29.88;;;;;;;-145.63;100.00;61273.97;5032674;28;20025;-63
2024/01/31 05:57:09;;;;;;;64.82;31.13;;;;;;;-145.63;100.00;61273.97;5017040;28;20122;-63
2024/01/31 05:59:39;;;;;;;69.40;31.63;;;;;;;-145.63;100.00;61273.97;5023206;28;20042;-63
2024/01/31 06:02:05;;;;;;;67.28;30.73;;;;;;;-145.63;100.00;61273.97;5032641;28;20033;-66
2024/01/31 06:04:30;;;;;;;72.90;31.35;;;;;;;-145.63;100.00;61273.97;5032260;28;20037;-63
2024/01/31 06:06:56;;;;;;;68.95;31.15;;;;;;;-145.63;100.00;61273.97;5015820;28;20026;-65
2024/01/31 06:09:22;;;;;;;68.93;30.40;;;;;;;-145.63;100.00;61273.97;5029013;28;20358;-64
2024/01/31 06:11:47;;;;;;;63.00;30.38;;;;;;;-145.63;100.00;61273.97;5049153;28;20025;-63
2024/01/31 06:14:13;;;;;;;70.38;30.58;;;;;;;-145.63;100.00;61273.97;5043903;28;20546;-64
2024/01/31 06:16:38;;;;;;;66.43;31.63;;;;;;;-145.63;100.00;61273.97;5023346;28;20048;-64
2024/01/31 06:19:04;;;;;;;72.93;31.77;;;;;;;-145.63;100.00;61273.97;5031111;28;20033;-63
2024/01/31 06:21:30;;;;;;;69.93;30.02;;;;;;;-145.63;100.00;61273.97;5031116;28;20036;-63
2024/01/31 06:23:55;;;;;;;67.15;30.35;;;;;;;-145.63;100.00;61273.97;5030584;28;20112;-63
2024/01/31 06:26:22;;;;;;;66.45;28.30;;;;;;;-145.63;100.00;61273.97;5032096;28;20029;-64
2024/01/31 06:28:48;;;;;;;65.45;30.15;;;;;;;-145.63;100.00;61273.97;5031842;28;20040;-64
2024/01/31 06:31:25;;;;;;;76.25;32.05;;;;;;;-145.63;100.00;61273.97;5031536;28;20390;-64
2024/01/31 06:33:50;;;;;;;71.55;31.63;;;;;;;-145.63;100.00;61273.97;5031438;28;20072;-64
2024/01/31 06:36:18;;;;;;;70.35;31.38;;;;;;;-145.63;100.00;61273.97;5023702;28;20046;-63
2024/01/31 06:38:45;;;;;;;67.03;30.38;;;;;;;-145.63;100.00;61273.97;5023006;28;20142;-64
2024/01/31 06:41:17;;;;;;;63.55;29.52;;;;;;;-145.63;100.00;61273.97;5031663;28;20025;-63
2024/01/31 06:43:43;;;;;;;66.15;28.60;;;;;;;-145.63;100.00;61273.97;5030267;28;20037;-64
2024/01/31 06:46:09;;;;;;;60.25;28.33;;;;;;;-145.63;100.00;61273.97;5031773;28;20037;-62
2024/01/31 06:48:35;;;;;;;60.50;27.52;;;;;;;-145.63;100.00;61273.97;5031245;28;20048;-65
2024/01/31 06:51:00;;;;;;;61.90;27.50;;;;;;;-145.63;100.00;61273.97;5031711;28;20029;-64
2024/01/31 06:53:27;;;;;;;61.33;27.15;;;;;;;-145.63;100.00;61273.97;5031163;28;20048;-65
2024/01/31 06:55:53;;;;;;;56.53;27.13;;;;;;;-145.63;100.00;61273.97;5030916;28;20041;-64
2024/01/31 06:58:19;;;;;;;55.97;27.88;;;;;;;-145.63;100.00;61273.97;5031004;28;20102;-64
2024/01/31 07:00:45;;;;;;;55.17;25.98;;;;;;;-145.63;100.00;61273.97;5029763;28;20032;-64
2024/01/31 07:03:11;;;;;;;61.78;28.42;;;;;;;-145.63;100.00;61273.97;5029492;28;20033;-65
2024/01/31 07:05:37;;;;;;;56.65;26.20;;;;;;;-145.63;100.00;61273.97;5030429;28;20091;-65
2024/01/31 07:08:03;;;;;;;57.17;26.20;;;;;;;-145.63;100.00;61273.97;5018249;28;20025;-64
2024/01/31 07:10:28;;;;;;;54.92;26.38;;;;;;;-145.63;100.00;61273.97;5039872;28;20459;-64
2024/01/31 07:12:54;;;;;;;54.60;27.17;;;;;;;-145.63;100.00;61273.97;5035540;28;20038;-65
2024/01/31 07:15:20;;;;;;;56.13;26.85;;;;;;;-145.63;100.00;61273.97;5033020;28;20025;-66
2024/01/31 07:17:46;;;;;;;53.28;25.40;;;;;;;-145.63;100.00;61273.97;5033985;28;20120;-66
2024/01/31 07:20:12;;;;;;;48.58;24.05;;;;;;;-145.63;100.00;61273.97;5036071;28;20184;-65
2024/01/31 07:22:38;;;;;;;49.20;24.00;;;;;;;-145.63;100.00;61273.97;5035861;28;20030;-64
2024/01/31 07:25:10;;;;;;;57.72;26.02;;;;;;;-145.63;100.00;61273.97;5038214;28;20068;-66
2024/01/31 07:27:40;;;;;;;49.33;24.48;;;;;;;-145.63;100.00;61273.97;5035909;28;20041;-66
2024/01/31 07:30:10;;;;;;;48.75;24.30;;;;;;;-145.63;100.00;61273.97;5037220;28;20044;-65
2024/01/31 07:32:37;;;;;;;44.92;22.88;;;;;;;-145.63;100.00;61273.97;5036906;28;20124;-65
2024/01/31 07:35:03;;;;;;;44.80;22.92;;;;;;;-145.63;100.00;61273.97;5033439;28;20515;-65
2024/01/31 07:37:30;;;;;;;44.92;22.73;;;;;;;-145.63;100.00;61273.97;5016568;28;20046;-66
2024/01/31 07:39:57;;;;;;;47.80;23.13;;;;;;;-145.63;100.00;61273.97;5035026;28;20039;-65
2024/01/31 07:42:23;;;;;;;44.40;23.40;;;;;;;-145.63;100.00;61273.97;5035398;28;20033;-64
2024/01/31 07:44:49;;;;;;;47.63;22.85;;;;;;;-145.63;100.00;61273.97;5035297;28;20038;-65
2024/01/31 07:47:15;;;;;;;44.33;21.65;;;;;;;-145.63;100.00;61273.97;5035309;28;20061;-64
2024/01/31 07:49:41;;;;;;;44.13;21.92;;;;;;;-145.63;100.00;61273.97;5032950;28;20110;-64
2024/01/31 07:52:07;;;;;;;44.05;22.35;;;;;;;-145.63;100.00;61273.97;5015005;28;20065;-66
2024/01/31 07:54:32;;;;;;;45.40;21.80;;;;;;;-145.63;100.00;61273.97;5032374;28;20068;-64
2024/01/31 07:56:59;;;;;;;44.47;22.25;;;;;;;-145.63;100.00;61273.97;5022600;28;20029;-64
2024/01/31 07:59:25;;;;;;;44.67;22.80;;;;;;;-145.63;100.00;61273.97;5022859;28;20098;-66
2024/01/31 08:01:51;;;;;;;47.05;23.67;;;;;;;-145.63;100.00;61273.97;5025973;28;20037;-65
2024/01/31 08:04:17;;;;;;;47.88;23.27;;;;;;;-145.63;100.00;61273.97;5034617;28;20366;-64
2024/01/31 08:06:43;;;;;;;43.10;22.67;;;;;;;-145.63;100.00;61273.97;5020178;28;20456;-65
2024/01/31 08:09:09;;;;;;;43.42;22.83;;;;;;;-145.63;100.00;61273.97;5028221;28;20030;-64
2024/01/31 08:11:44;;;;;;;41.65;20.67;;;;;;;-145.63;100.00;61273.97;5028434;28;20041;-66
2024/01/31 08:14:10;;;;;;;45.80;21.73;;;;;;;-145.63;100.00;61273.97;5034290;28;20049;-64
2024/01/31 08:16:37;;;;;;;45.17;22.75;;;;;;;-145.63;100.00;61273.97;5033123;28;20068;-65
2024/01/31 08:19:03;;;;;;;41.38;21.48;;;;;;;-145.63;100.00;61273.97;5014681;28;20029;-65
2024/01/31 08:21:32;;;;;;;43.45;21.48;;;;;;;-145.63;100.00;61273.97;5033691;28;20029;-64
2024/01/31 08:23:59;;;;;;;40.40;21.05;;;;;;;-145.63;100.00;61273.97;5034495;28;20045;-64
2024/01/31 08:26:25;;;;;;;39.75;20.35;;;;;;;-145.63;100.00;61273.97;5033754;28;20034;-65
2024/01/31 08:28:50;;;;;;;46.05;22.90;;;;;;;-145.63;100.00;61273.97;5032293;28;20399;-66
2024/01/31 08:31:16;;;;;;;38.88;22.00;;;;;;;-145.63;100.00;61273.97;5031130;28;20455;-65
2024/01/31 08:33:44;;;;;;;38.60;20.15;;;;;;;-145.63;100.00;61273.97;5033795;28;20037;-65
2024/01/31 08:36:09;;;;;;;40.17;21.80;;;;;;;-145.63;100.00;61273.97;5027301;28;20054;-65
2024/01/31 08:38:37;;;;;;;36.53;20.58;;;;;;;-145.63;100.00;61273.97;5023676;28;20092;-66
2024/01/31 08:41:05;;;;;;;40.15;21.50;;;;;;;-145.63;100.00;61273.97;5033258;28;20037;-66
2024/01/31 08:43:30;;;;;;;35.35;19.65;;;;;;;-145.63;100.00;61273.97;5032819;28;20029;-67
2024/01/31 08:45:56;;;;;;;33.97;19.63;;;;;;;-145.63;100.00;61273.97;5027879;28;20391;-66
2024/01/31 08:48:21;;;;;;;35.08;18.60;;;;;;;-145.63;100.00;61273.97;5033678;28;20427;-66
2024/01/31 08:50:48;;;;;;;31.65;19.30;;;;;;;-145.63;100.00;61273.97;5030216;28;20033;-64
2024/01/31 08:53:13;;;;;;;31.35;18.42;;;;;;;-145.63;100.00;61273.97;5031020;28;20032;-65
2024/01/31 08:55:39;;;;;;;29.38;18.38;;;;;;;-145.63;100.00;61273.97;5032910;28;20029;-65
2024/01/31 08:58:05;;;;;;;36.60;18.10;;;;;;;-145.63;100.00;61273.97;5026088;28;20382;-63
2024/01/31 09:00:30;;;;;;;30.75;18.08;;;;;;;-145.63;100.00;61273.97;5032160;28;20029;-64
2024/01/31 09:02:56;;;;;;;28.05;18.52;;;;;;;-145.63;100.00;61273.97;5026829;28;20371;-64
2024/01/31 09:05:22;;;;;;;31.17;18.15;;;;;;;-145.63;100.00;61273.97;5034097;28;20351;-65
2024/01/31 09:07:48;;;;;;;31.80;19.23;;;;;;;-145.63;100.00;61273.97;5030411;28;20041;-65
2024/01/31 09:10:14;;;;;;;33.03;20.15;;;;;;;-145.63;100.00;61273.97;5038426;28;20028;-67
2024/01/31 09:12:39;;;;;;;32.20;17.73;;;;;;;-145.63;100.00;61273.97;5029091;28;20033;-65
2024/01/31 09:15:05;;;;;;;32.47;18.05;;;;;;;-145.63;100.00;61273.97;5021008;28;20033;-66
2024/01/31 09:17:31;;;;;;;29.40;18.48;;;;;;;-145.63;100.00;61273.97;5029707;28;20044;-65
2024/01/31 09:19:57;;;;;;;28.38;17.75;;;;;;;-145.63;100.00;61273.97;5029905;28;20109;-66
2024/01/31 09:22:24;;;;;;;30.95;17.98;;;;;;;-145.63;100.00;61273.97;5013421;28;20042;-65
2024/01/31 09:24:50;;;;;;;29.85;18.60;;;;;;;-145.63;100.00;61273.97;5031836;28;20025;-67
2024/01/31 09:27:19;;;;;;;25.33;16.52;;;;;;;-145.63;100.00;61273.97;5024324;28;20045;-65
2024/01/31 09:29:46;;;;;;;25.88;17.38;;;;;;;-145.63;100.00;61273.97;5023223;28;20029;-65
2024/01/31 09:32:14;;;;;;;22.08;15.13;;;;;;;-145.63;100.00;61273.97;5030696;28;20040;-65
2024/01/31 09:34:41;;;;;;;26.67;15.38;;;;;;;-145.63;100.00;61273.97;5032458;28;20099;-65
2024/01/31 09:37:07;;;;;;;21.65;14.90;;;;;;;-145.63;100.00;61273.97;5016234;28;20049;-65
2024/01/31 09:39:32;;;;;;;22.02;15.55;;;;;;;-145.63;100.00;61273.97;5029025;28;20039;-64
2024/01/31 09:41:58;;;;;;;22.40;14.32;;;;;;;-145.63;100.00;61273.97;5020825;28;20041;-65
2024/01/31 09:44:25;;;;;;;23.55;15.55;;;;;;;-145.63;100.00;61273.97;5025127;28;20083;-64
2024/01/31 09:46:52;;;;;;;19.92;14.25;;;;;;;-145.63;100.00;61273.97;5030456;28;20033;-64
2024/01/31 09:49:18;;;;;;;21.40;14.38;;;;;;;-145.63;100.00;61273.97;5018997;28;20033;-65
2024/01/31 09:51:44;;;;;;;20.85;15.13;;;;;;;-145.63;100.00;61273.97;5019076;28;20038;-66
2024/01/31 09:54:09;;;;;;;22.23;15.63;;;;;;;-145.63;100.00;61273.97;5027812;28;20137;-65
2024/01/31 09:56:36;;;;;;;22.67;15.63;;;;;;;-145.63;100.00;61273.97;5021134;28;20037;-65
2024/01/31 09:59:03;;;;;;;21.83;14.93;;;;;;;-145.63;100.00;61273.97;5030579;28;20024;-64
2024/01/31 10:01:29;;;;;;;24.30;15.63;;;;;;;-145.63;100.00;61273.97;5021062;28;20494;-65
2024/01/31 10:03:58;;;;;;;20.95;15.13;;;;;;;-145.63;100.00;61273.97;5031733;28;20026;-65
2024/01/31 10:06:26;;;;;;;21.80;15.18;;;;;;;-145.63;100.00;61273.97;5029493;28;20021;-64
2024/01/31 10:08:52;;;;;;;22.20;15.02;;;;;;;-145.63;100.00;61273.97;5022208;28;20018;-65
2024/01/31 10:11:18;;;;;;;20.33;14.60;;;;;;;-145.63;100.00;61273.97;5026745;28;20056;-64
2024/01/31 10:13:44;;;;;;;22.30;15.70;;;;;;;-145.63;100.00;61273.97;5032470;28;20395;-64
2024/01/31 10:16:09;;;;;;;22.48;15.82;;;;;;;-145.63;100.00;61273.97;5032579;28;20072;-62
2024/01/31 10:18:35;;;;;;;19.92;14.75;;;;;;;-145.63;100.00;61273.97;5016299;28;20423;-66
2024/01/31 10:21:01;;;;;;;20.67;14.43;;;;;;;-145.63;100.00;61273.97;5024078;28;20021;-64
2024/01/31 10:23:27;;;;;;;21.83;14.90;;;;;;;-145.63;100.00;61273.97;5032060;28;20116;-64
2024/01/31 10:25:53;;;;;;;19.35;14.10;;;;;;;-145.63;100.00;61273.97;5030222;28;20112;-65
2024/01/31 10:28:20;;;;;;;21.17;14.55;;;;;;;-145.63;100.00;61273.97;5012525;28;20328;-65
2024/01/31 10:30:47;;;;;;;21.15;15.05;;;;;;;-145.63;100.00;61273.97;5029939;28;20066;-65
2024/01/31 10:33:14;;;;;;;24.05;15.32;;;;;;;-145.63;100.00;61273.97;5032393;28;20032;-65
2024/01/31 10:35:43;;;;;;;22.02;16.27;;;;;;;-145.63;100.00;61273.97;5032406;28;20041;-65
2024/01/31 10:38:12;;;;;;;21.50;14.63;;;;;;;-145.63;100.00;61273.97;5027844;28;20076;-64
2024/01/31 10:40:41;;;;;;;22.95;15.63;;;;;;;-145.63;100.00;61273.97;5012423;28;20522;-64
2024/01/31 10:43:10;;;;;;;27.02;15.60;;;;;;;-145.63;100.00;61273.97;5011277;28;20037;-67
2024/01/31 10:45:36;;;;;;;19.60;15.10;;;;;;;-145.63;100.00;61273.97;5028427;28;20059;-65
2024/01/31 10:48:04;;;;;;;21.08;15.15;;;;;;;-145.63;100.00;61273.97;5031553;28;20047;-65
2024/01/31 10:50:31;;;;;;;19.20;13.77;;;;;;;-145.63;100.00;61273.97;5031393;28;20066;-65